createdAt,value
2022-07-27T00:01:11.875Z,0
2022-07-27T00:07:19.848Z,0
2022-07-27T00:12:44.800Z,0
2022-07-27T00:18:06.993Z,0
2022-07-27T00:23:29.180Z,0
2022-07-27T00:28:51.585Z,0
2022-07-27T00:34:17.035Z,0
2022-07-27T00:39:39.365Z,0
2022-07-27T00:45:04.590Z,0
2022-07-27T00:50:27.309Z,0
2022-07-27T00:55:52.670Z,0
2022-07-27T01:01:23.173Z,0
2022-07-27T01:06:48.747Z,0
2022-07-27T01:12:11.387Z,0
2022-07-27T01:17:36.535Z,0
2022-07-27T01:23:01.991Z,0
2022-07-27T01:28:25.249Z,0
2022-07-27T01:33:47.736Z,0
2022-07-27T01:44:36.210Z,0
2022-07-27T01:49:58.815Z,0
2022-07-27T01:55:21.182Z,0
2022-07-27T02:00:43.534Z,0
2022-07-27T02:06:06.011Z,0
2022-07-27T02:11:28.253Z,0
2022-07-27T02:16:50.957Z,0
2022-07-27T02:22:14.991Z,0
2022-07-27T02:27:37.091Z,0
2022-07-27T02:32:59.300Z,0
2022-07-27T02:38:22.436Z,0
2022-07-27T02:43:44.839Z,0
2022-07-27T02:49:07.651Z,0
2022-07-27T02:54:30.942Z,0
2022-07-27T02:59:53.178Z,0
2022-07-27T03:05:19.468Z,0
2022-07-27T03:10:48.918Z,0
2022-07-27T03:16:11.451Z,0
2022-07-27T03:21:33.919Z,0
2022-07-27T03:32:46.778Z,0
2022-07-27T03:38:09.067Z,0
2022-07-27T03:43:33.995Z,0
2022-07-27T03:48:56.508Z,0
2022-07-27T03:54:38.079Z,0.1
2022-07-27T04:00:00.587Z,0.1
2022-07-27T04:05:29.331Z,0.1
2022-07-27T04:11:01.031Z,0.1
2022-07-27T04:16:24.377Z,0.1
2022-07-27T04:21:47.548Z,0.1
2022-07-27T04:27:18.659Z,0.1
2022-07-27T04:32:41.715Z,0.1
2022-07-27T04:38:04.393Z,0.5
2022-07-27T04:43:28.257Z,0.4
2022-07-27T04:49:05.532Z,0.5
2022-07-27T04:54:28.860Z,0.4
2022-07-27T04:59:54.365Z,0.4
2022-07-27T05:05:17.004Z,0.4
2022-07-27T05:10:38.871Z,0.4
2022-07-27T05:16:01.388Z,0.4
2022-07-27T05:21:24.583Z,0.3
2022-07-27T05:26:50.193Z,0.3
2022-07-27T05:32:12.492Z,0.4
2022-07-27T05:37:35.441Z,0.4
2022-07-27T05:43:03.924Z,0.4
2022-07-27T05:48:26.452Z,0.4
2022-07-27T05:53:49.071Z,0.5
2022-07-27T05:59:11.862Z,0.6
2022-07-27T06:04:36.121Z,0.6
2022-07-27T06:09:58.662Z,0.7
2022-07-27T06:15:23.928Z,3.2
2022-07-27T06:20:52.223Z,1.2
2022-07-27T06:26:18.148Z,1.2
2022-07-27T06:31:40.878Z,3.9
2022-07-27T06:37:08.317Z,4.1
2022-07-27T06:42:31.862Z,3.6
2022-07-27T06:47:57.699Z,2.9
2022-07-27T06:53:21.236Z,2
2022-07-27T06:58:49.484Z,1.8
2022-07-27T07:04:14.809Z,1.7
2022-07-27T07:15:17.190Z,2.6
2022-07-27T07:20:39.054Z,1.6
2022-07-27T07:31:25.205Z,1.8
2022-07-27T07:36:48.435Z,1.4
2022-07-27T07:42:11.560Z,1.6
2022-07-27T07:47:35.228Z,6.1
2022-07-27T07:52:59.187Z,5.1
2022-07-27T07:58:23.247Z,4.4
2022-07-27T08:03:48.809Z,6
2022-07-27T08:09:14.947Z,1.4
2022-07-27T08:14:36.464Z,1.8
2022-07-27T08:19:59.524Z,2.6
2022-07-27T08:25:22.373Z,2.5
2022-07-27T08:30:53.293Z,3
2022-07-27T08:36:16.748Z,4.7
2022-07-27T08:41:50.180Z,2
2022-07-27T08:47:11.211Z,2
2022-07-27T08:52:33.484Z,2.5
2022-07-27T09:08:58.623Z,2.6
2022-07-27T09:14:21.431Z,2.3
2022-07-27T09:19:43.660Z,1.9
2022-07-27T09:25:06.197Z,1.7
2022-07-27T09:30:29.104Z,1.8
2022-07-27T09:35:51.464Z,1.9
2022-07-27T09:41:15.190Z,2.1
2022-07-27T09:46:37.989Z,2.4
2022-07-27T09:52:03.730Z,2.7
2022-07-27T09:57:27.553Z,2.8
2022-07-27T10:02:59.438Z,3
2022-07-27T10:08:21.716Z,3.3
2022-07-27T10:13:45.015Z,4
2022-07-27T10:19:08.691Z,4.4
2022-07-27T10:24:33.198Z,5.5
2022-07-27T10:30:00.814Z,5.7
2022-07-27T10:40:46.193Z,5.4
2022-07-27T10:46:08.810Z,4.7
2022-07-27T10:51:32.192Z,4.9
2022-07-27T10:56:55.895Z,6.3
2022-07-27T11:08:13.693Z,5.5
2022-07-27T11:14:11.043Z,5.2
2022-07-27T11:19:35.130Z,7.4
2022-07-27T11:25:19.121Z,9.4
2022-07-27T11:30:43.047Z,9.4
2022-07-27T11:36:06.592Z,8.8
2022-07-27T11:41:47.831Z,2.5
2022-07-27T11:47:38.509Z,2.1
2022-07-27T11:58:09.867Z,8.3
2022-07-27T12:03:32.907Z,9.6
2022-07-27T12:09:12.211Z,2.3
2022-07-27T12:14:33.257Z,1.9
2022-07-27T12:20:15.522Z,2.1
2022-07-27T12:25:43.693Z,2.4
2022-07-27T12:31:06.538Z,2.7
2022-07-27T12:36:30.463Z,2.8
2022-07-27T12:42:01.846Z,3
2022-07-27T12:47:27.558Z,3
2022-07-27T12:52:53.510Z,2.9
2022-07-27T12:58:15.925Z,3
2022-07-27T13:03:38.667Z,3.1
2022-07-27T13:09:01.872Z,9.6
2022-07-27T13:14:29.384Z,7.3
2022-07-27T13:19:50.506Z,3.1
2022-07-27T13:25:15.707Z,2.3
2022-07-27T13:30:39.641Z,2.3
2022-07-27T13:36:02.120Z,7.8
2022-07-27T13:41:28.954Z,9.2
2022-07-27T13:46:52.983Z,7.9
2022-07-27T13:52:16.199Z,2.3
2022-07-27T13:57:36.064Z,1.5
2022-07-27T14:02:57.528Z,1.3
2022-07-27T14:08:20.524Z,1.5
2022-07-27T14:13:42.654Z,1.7
2022-07-27T14:19:08.179Z,2.1
2022-07-27T14:24:38.009Z,2.2
2022-07-27T14:30:00.934Z,2.1
2022-07-27T14:35:44.551Z,2.3
2022-07-27T14:41:07.082Z,2.4
2022-07-27T14:46:29.702Z,3
2022-07-27T14:51:52.888Z,8.3
2022-07-27T14:57:18.276Z,9
2022-07-27T15:02:41.095Z,7.7
2022-07-27T15:08:07.788Z,8.4
2022-07-27T15:19:19.776Z,8.8
2022-07-27T15:24:40.865Z,2.4
2022-07-27T15:30:03.315Z,1.5
2022-07-27T15:35:25.591Z,1.4
2022-07-27T15:40:47.563Z,4.7
2022-07-27T15:46:10.225Z,0.8
2022-07-27T15:51:36.781Z,0.9
2022-07-27T15:57:00.088Z,1.2
2022-07-27T16:02:23.044Z,1
2022-07-27T16:07:47.491Z,0.8
2022-07-27T16:13:10.055Z,0.9
2022-07-27T16:23:43.230Z,0.9
2022-07-27T16:29:05.777Z,0.8
2022-07-27T16:34:28.577Z,0.8
2022-07-27T16:39:51.025Z,0.7
2022-07-27T16:45:13.863Z,0.7
2022-07-27T16:50:36.618Z,0.7
2022-07-27T16:55:59.136Z,0.9
2022-07-27T17:01:22.517Z,0.9
2022-07-27T17:12:22.906Z,0.8
2022-07-27T17:17:45.841Z,0.7
2022-07-27T17:23:10.694Z,0.6
2022-07-27T17:28:45.794Z,0.6
2022-07-27T17:34:08.204Z,0.6
2022-07-27T17:39:30.573Z,0.5
2022-07-27T17:44:53.207Z,0.6
2022-07-27T17:50:16.158Z,0.6
2022-07-27T17:55:38.822Z,0.6
2022-07-27T18:01:07.256Z,0.6
2022-07-27T18:06:30.265Z,0.5
2022-07-27T18:11:52.939Z,0.5
2022-07-27T18:17:15.221Z,0.4
2022-07-27T18:22:40.324Z,0.4
2022-07-27T18:28:02.802Z,0.4
2022-07-27T18:33:25.580Z,0.4
2022-07-27T18:38:59.691Z,0.3
2022-07-27T18:44:22.074Z,0.3
2022-07-27T18:49:44.740Z,0.3
2022-07-27T18:55:07.439Z,0.2
2022-07-27T19:05:42.005Z,0.1
2022-07-27T19:16:46.999Z,0.1
2022-07-27T19:22:09.715Z,0.1
2022-07-27T19:27:31.834Z,0
2022-07-27T19:33:00.998Z,0
2022-07-27T19:38:23.508Z,0
2022-07-27T19:43:45.887Z,0
2022-07-27T19:49:08.258Z,0
2022-07-27T19:54:34.711Z,0
2022-07-27T19:59:57.192Z,0
2022-07-27T20:05:19.780Z,0
2022-07-27T20:10:42.071Z,0
2022-07-27T20:16:04.414Z,0
2022-07-27T20:21:27.011Z,0
2022-07-27T20:26:49.560Z,0
2022-07-27T20:32:12.077Z,0
2022-07-27T20:37:34.407Z,0
2022-07-27T20:42:56.780Z,0
2022-07-27T20:48:19.333Z,0
2022-07-27T20:53:42.027Z,0
2022-07-27T20:59:07.508Z,0
2022-07-27T21:04:49.638Z,0
2022-07-27T21:10:17.236Z,0
2022-07-27T21:15:39.768Z,0
2022-07-27T21:21:02.565Z,0
2022-07-27T21:26:25.083Z,0
2022-07-27T21:31:48.385Z,0
2022-07-27T21:37:12.965Z,0
2022-07-27T21:42:35.332Z,0
2022-07-27T21:47:57.602Z,0
2022-07-27T21:53:20.121Z,0
2022-07-27T21:58:43.032Z,0
2022-07-27T22:04:05.690Z,0
2022-07-27T22:09:29.187Z,0
2022-07-27T22:14:51.898Z,0
2022-07-27T22:20:14.494Z,0
2022-07-27T22:25:36.964Z,0
2022-07-27T22:31:17.522Z,0
2022-07-27T22:36:46.294Z,0
2022-07-27T22:42:08.502Z,0
2022-07-27T22:47:30.971Z,0
2022-07-27T22:52:53.438Z,0
2022-07-27T22:58:15.699Z,0
2022-07-27T23:03:38.406Z,0
2022-07-27T23:09:03.903Z,0
2022-07-27T23:14:26.565Z,0
2022-07-27T23:19:49.079Z,0
2022-07-27T23:25:11.958Z,0
2022-07-27T23:30:37.220Z,0
2022-07-27T23:35:59.475Z,0
2022-07-27T23:41:22.133Z,0
2022-07-27T23:46:44.913Z,0
2022-07-27T23:52:07.846Z,0
2022-07-27T23:57:30.200Z,0
